Time;durP1;ratioP1;P1;durP2;ratioP2;P2;SDS_P1;SDS_P2;PMS_P1;PMS_P2;Temp;Humidity;BMP_temperature;BMP_pressure;BME280_temperature;BME280_humidity;BME280_pressure;Samples;Min_cycle;Max_cycle;Signal;HPM_P1;HPM_P2
2022/09/05 00:01:53;;;;;;;1.33;0.70;;;;;;;;;;5111445;28;20405;-75
2022/09/05 00:04:25;;;;;;;0.47;0.40;;;;;;;;;;5115723;28;20015;-75
2022/09/05 00:06:57;;;;;;;1.23;0.43;;;;;;;;;;5115675;28;20024;-75
2022/09/05 00:09:42;;;;;;;1.40;0.60;;;;;;;;;;5115134;28;20527;-75
2022/09/05 00:12:10;;;;;;;1.08;0.35;;;;;;;;;;5115198;28;20059;-76
2022/09/05 00:14:51;;;;;;;1.40;0.50;;;;;;;;;;5111932;28;20512;-76
2022/09/05 00:17:33;;;;;;;2.43;0.70;;;;;;;;;;5109845;28;20470;-75
2022/09/05 00:20:06;;;;;;;0.37;0.27;;;;;;;;;;5110021;28;20027;-76
2022/09/05 00:22:45;;;;;;;2.67;0.37;;;;;;;;;;5109830;28;20482;-76
2022/09/05 00:25:12;;;;;;;1.10;0.37;;;;;;;;;;5112248;28;20031;-76
2022/09/05 00:27:38;;;;;;;0.37;0.23;;;;;;;;;;5114617;28;20022;-75
2022/09/05 00:30:13;;;;;;;0.50;0.50;;;;;;;;;;5115116;28;20081;-76
2022/09/05 00:32:51;;;;;;;0.30;0.20;;;;;;;;;;5115273;28;20056;-76
2022/09/05 00:35:20;;;;;;;1.80;0.70;;;;;;;;;;5114692;28;20076;-75
2022/09/05 00:37:48;;;;;;;4.30;0.53;;;;;;;;;;5110313;28;20380;-75
2022/09/05 00:40:21;;;;;;;0.40;0.30;;;;;;;;;;5109802;28;20472;-75
2022/09/05 00:42:50;;;;;;;1.20;0.60;;;;;;;;;;5109656;28;20030;-75
2022/09/05 00:45:24;;;;;;;0.90;0.70;;;;;;;;;;5109473;28;20078;-75
2022/09/05 00:48:02;;;;;;;1.00;0.53;;;;;;;;;;5113218;28;20408;-76
2022/09/05 00:50:33;;;;;;;1.20;0.53;;;;;;;;;;5114412;28;20073;-76
2022/09/05 00:53:20;;;;;;;1.40;0.77;;;;;;;;;;5114748;28;20031;-74
2022/09/05 00:56:00;;;;;;;2.30;1.10;;;;;;;;;;5114623;28;20084;-76
2022/09/05 00:58:53;;;;;;;0.40;0.30;;;;;;;;;;5113910;28;20023;-76
2022/09/05 01:01:41;;;;;;;0.93;0.63;;;;;;;;;;5105405;28;20036;-76
2022/09/05 01:04:19;;;;;;;2.83;0.80;;;;;;;;;;5106840;28;20474;-76
2022/09/05 01:06:45;;;;;;;1.60;0.60;;;;;;;;;;5107773;28;20369;-76
2022/09/05 01:09:15;;;;;;;0.77;0.63;;;;;;;;;;5111293;28;20028;-76
2022/09/05 01:11:48;;;;;;;1.17;0.70;;;;;;;;;;5113649;28;20031;-76
2022/09/05 01:14:33;;;;;;;0.83;0.70;;;;;;;;;;5113876;28;20381;-76
2022/09/05 01:17:19;;;;;;;0.50;0.45;;;;;;;;;;5113298;28;20020;-75
2022/09/05 01:19:57;;;;;;;1.37;0.80;;;;;;;;;;5113098;28;20066;-76
2022/09/05 01:22:43;;;;;;;1.87;0.73;;;;;;;;;;5101022;28;20084;-75
2022/09/05 01:25:39;;;;;;;3.70;0.73;;;;;;;;;;5109362;28;20020;-72
2022/09/05 01:28:15;;;;;;;1.37;0.77;;;;;;;;;;5087158;28;20736;-73
2022/09/05 01:30:42;;;;;;;1.07;0.50;;;;;;;;;;5108603;28;20049;-72
2022/09/05 01:33:15;;;;;;;0.57;0.50;;;;;;;;;;5114463;28;20650;-72
2022/09/05 01:35:51;;;;;;;2.37;1.23;;;;;;;;;;5113693;28;20434;-72
2022/09/05 01:38:26;;;;;;;0.47;0.43;;;;;;;;;;5114353;28;20073;-71
2022/09/05 01:40:55;;;;;;;1.35;0.77;;;;;;;;;;5113911;28;20059;-74
2022/09/05 01:43:34;;;;;;;1.40;0.50;;;;;;;;;;5113063;28;20069;-74
2022/09/05 01:46:09;;;;;;;2.13;0.93;;;;;;;;;;5102434;28;20378;-72
2022/09/05 01:48:58;;;;;;;3.07;0.90;;;;;;;;;;5109194;28;20103;-75
2022/09/05 01:51:45;;;;;;;1.77;1.00;;;;;;;;;;5108667;28;20082;-73
2022/09/05 01:54:21;;;;;;;0.57;0.50;;;;;;;;;;5111055;28;20474;-72
2022/09/05 01:57:06;;;;;;;1.10;0.67;;;;;;;;;;5113947;28;20106;-75
2022/09/05 01:59:43;;;;;;;1.02;0.60;;;;;;;;;;5113696;28;20180;-72
2022/09/05 02:02:10;;;;;;;0.50;0.40;;;;;;;;;;5113764;28;20471;-72
2022/09/05 02:04:55;;;;;;;2.33;1.30;;;;;;;;;;5112143;28;20023;-72
2022/09/05 02:07:40;;;;;;;2.25;0.90;;;;;;;;;;5104677;28;20016;-73
2022/09/05 02:10:26;;;;;;;2.53;1.52;;;;;;;;;;5105960;28;20107;-76
2022/09/05 02:12:56;;;;;;;3.93;1.33;;;;;;;;;;5108811;28;20034;-75
2022/09/05 02:15:24;;;;;;;1.43;1.00;;;;;;;;;;5108524;28;20040;-72
2022/09/05 02:17:55;;;;;;;1.43;1.10;;;;;;;;;;5114081;28;20020;-75
2022/09/05 02:20:30;;;;;;;0.83;0.70;;;;;;;;;;5113715;28;20110;-74
2022/09/05 02:22:57;;;;;;;0.80;0.70;;;;;;;;;;5112692;28;20026;-74
2022/09/05 02:25:41;;;;;;;0.83;0.60;;;;;;;;;;5113575;28;20047;-73
2022/09/05 02:28:17;;;;;;;1.38;1.00;;;;;;;;;;5111971;28;20034;-74
2022/09/05 02:30:48;;;;;;;0.70;0.60;;;;;;;;;;5106314;28;20024;-78
2022/09/05 02:33:21;;;;;;;0.93;0.80;;;;;;;;;;5107732;28;20043;-73
2022/09/05 02:36:06;;;;;;;2.93;0.87;;;;;;;;;;5108319;28;20047;-77
2022/09/05 02:38:36;;;;;;;2.13;1.42;;;;;;;;;;5109839;28;20422;-77
2022/09/05 02:41:06;;;;;;;1.50;0.97;;;;;;;;;;5113812;28;20125;-76
2022/09/05 02:43:58;;;;;;;2.70;0.80;;;;;;;;;;5113384;28;20493;-76
2022/09/05 02:46:30;;;;;;;0.83;0.53;;;;;;;;;;5112761;28;20051;-76
2022/09/05 02:49:06;;;;;;;1.73;1.30;;;;;;;;;;5111931;28;20540;-73
2022/09/05 02:51:38;;;;;;;2.63;1.37;;;;;;;;;;5109299;28;20024;-76
2022/09/05 02:54:09;;;;;;;0.67;0.67;;;;;;;;;;5107942;28;20106;-72
2022/09/05 02:56:48;;;;;;;2.13;1.20;;;;;;;;;;5107096;28;20049;-76
2022/09/05 02:59:29;;;;;;;3.63;1.00;;;;;;;;;;5107026;28;20473;-77
2022/09/05 03:02:01;;;;;;;2.00;0.90;;;;;;;;;;5093250;28;20482;-77
2022/09/05 03:04:40;;;;;;;0.77;0.60;;;;;;;;;;5109161;28;20016;-75
2022/09/05 03:07:06;;;;;;;1.67;1.00;;;;;;;;;;5113580;28;20047;-74
2022/09/05 03:09:45;;;;;;;0.57;0.40;;;;;;;;;;5113153;28;20024;-77
2022/09/05 03:12:24;;;;;;;0.63;0.63;;;;;;;;;;5113515;28;20034;-78
2022/09/05 03:15:09;;;;;;;0.83;0.73;;;;;;;;;;5106778;28;20039;-76
2022/09/05 03:17:36;;;;;;;0.65;0.47;;;;;;;;;;5107307;28;20437;-77
2022/09/05 03:20:23;;;;;;;0.50;0.40;;;;;;;;;;5108410;28;20103;-79
2022/09/05 03:22:51;;;;;;;1.10;0.87;;;;;;;;;;5107277;28;20474;-81
2022/09/05 03:25:18;;;;;;;1.27;0.60;;;;;;;;;;5113108;28;20482;-78
2022/09/05 03:27:48;;;;;;;2.80;1.37;;;;;;;;;;5112774;28;20035;-79
2022/09/05 03:30:25;;;;;;;1.10;0.57;;;;;;;;;;5113000;28;20063;-76
2022/09/05 03:32:55;;;;;;;0.97;0.70;;;;;;;;;;5112173;28;20035;-77
2022/09/05 03:35:40;;;;;;;1.67;0.80;;;;;;;;;;5111029;28;20530;-78
2022/09/05 03:38:07;;;;;;;1.40;0.50;;;;;;;;;;5107733;28;20023;-78
2022/09/05 03:40:51;;;;;;;0.60;0.60;;;;;;;;;;5107319;28;20397;-77
2022/09/05 03:43:24;;;;;;;0.87;0.37;;;;;;;;;;5106321;28;20465;-78
2022/09/05 03:46:17;;;;;;;0.40;0.37;;;;;;;;;;5110600;28;20028;-77
2022/09/05 03:48:47;;;;;;;0.93;0.70;;;;;;;;;;5082513;28;20059;-77
2022/09/05 03:51:26;;;;;;;1.30;0.50;;;;;;;;;;5116754;28;20459;-77
2022/09/05 03:53:58;;;;;;;0.20;0.20;;;;;;;;;;5114926;28;20027;-78
2022/09/05 03:56:28;;;;;;;1.07;0.50;;;;;;;;;;5114667;28;20408;-75
2022/09/05 03:59:04;;;;;;;0.77;0.53;;;;;;;;;;5111755;28;20107;-76
2022/09/05 04:01:34;;;;;;;1.33;0.80;;;;;;;;;;5109975;28;20031;-78
2022/09/05 04:04:03;;;;;;;0.87;0.53;;;;;;;;;;5111108;28;20047;-78
2022/09/05 04:06:34;;;;;;;0.67;0.50;;;;;;;;;;5111456;28;20359;-78
2022/09/05 04:09:17;;;;;;;2.53;0.80;;;;;;;;;;5114821;28;20068;-75
2022/09/05 04:11:51;;;;;;;1.33;0.67;;;;;;;;;;5116755;28;20478;-76
2022/09/05 04:14:36;;;;;;;0.55;0.45;;;;;;;;;;5115169;28;20023;-79
2022/09/05 04:17:08;;;;;;;0.60;0.52;;;;;;;;;;5109223;28;20035;-76
2022/09/05 04:19:34;;;;;;;1.73;1.07;;;;;;;;;;5115735;28;20030;-76
2022/09/05 04:22:09;;;;;;;0.80;0.30;;;;;;;;;;5111125;28;20062;-76
2022/09/05 04:24:45;;;;;;;0.80;0.60;;;;;;;;;;5111115;27;20035;-75
2022/09/05 04:27:28;;;;;;;0.67;0.53;;;;;;;;;;5110617;28;20096;-76
2022/09/05 04:29:54;;;;;;;1.37;0.57;;;;;;;;;;5099081;28;20050;-75
2022/09/05 04:32:36;;;;;;;1.13;0.73;;;;;;;;;;5115700;28;20031;-76
2022/09/05 04:35:03;;;;;;;0.73;0.60;;;;;;;;;;5115334;28;20538;-76
2022/09/05 04:37:33;;;;;;;1.17;0.87;;;;;;;;;;5116142;28;20098;-75
2022/09/05 04:40:19;;;;;;;0.80;0.67;;;;;;;;;;5115303;28;20026;-75
2022/09/05 04:42:46;;;;;;;12.63;0.83;;;;;;;;;;5112923;28;20045;-75
2022/09/05 04:45:14;;;;;;;0.60;0.53;;;;;;;;;;5110286;28;20027;-75
2022/09/05 04:47:43;;;;;;;0.30;0.30;;;;;;;;;;5110011;28;20027;-75
2022/09/05 04:50:17;;;;;;;0.43;0.43;;;;;;;;;;5110887;28;20023;-75
2022/09/05 04:52:47;;;;;;;1.70;1.07;;;;;;;;;;5110725;28;20035;-76
2022/09/05 04:55:16;;;;;;;1.37;0.70;;;;;;;;;;5115581;28;20036;-77
2022/09/05 04:57:42;;;;;;;0.63;0.30;;;;;;;;;;5113503;28;20100;-76
2022/09/05 05:00:14;;;;;;;6.27;1.57;;;;;;;;;;5115053;28;20020;-76
2022/09/05 05:02:47;;;;;;;4.33;0.80;;;;;;;;;;5115190;28;20362;-76
2022/09/05 05:05:17;;;;;;;1.57;1.20;;;;;;;;;;5112785;28;20020;-76
2022/09/05 05:07:44;;;;;;;0.67;0.53;;;;;;;;;;5110044;28;20020;-76
2022/09/05 05:10:15;;;;;;;0.93;0.67;;;;;;;;;;5109675;28;20046;-75
2022/09/05 05:12:46;;;;;;;1.87;0.93;;;;;;;;;;5109158;28;20023;-76
2022/09/05 05:15:17;;;;;;;0.90;0.60;;;;;;;;;;5109554;28;20032;-76
2022/09/05 05:17:52;;;;;;;2.10;1.20;;;;;;;;;;5115485;28;20055;-76
2022/09/05 05:20:21;;;;;;;1.58;1.10;;;;;;;;;;5114348;28;20026;-76
2022/09/05 05:22:57;;;;;;;1.27;0.60;;;;;;;;;;5115288;28;20027;-76
2022/09/05 05:25:25;;;;;;;0.80;0.70;;;;;;;;;;5113521;28;20047;-75
2022/09/05 05:28:09;;;;;;;5.40;1.03;;;;;;;;;;5111682;28;20016;-75
2022/09/05 05:30:37;;;;;;;0.70;0.45;;;;;;;;;;5089619;28;20059;-75
2022/09/05 05:33:11;;;;;;;4.30;1.33;;;;;;;;;;5099792;28;20110;-76
2022/09/05 05:35:38;;;;;;;3.17;1.20;;;;;;;;;;5102603;28;20036;-76
2022/09/05 05:38:17;;;;;;;2.63;1.27;;;;;;;;;;5112877;28;20019;-74
2022/09/05 05:40:46;;;;;;;2.37;0.93;;;;;;;;;;5113157;27;20028;-76
2022/09/05 05:43:14;;;;;;;4.40;2.03;;;;;;;;;;5112755;27;20019;-76
2022/09/05 05:45:41;;;;;;;2.43;1.50;;;;;;;;;;5112246;28;20022;-76
2022/09/05 05:48:20;;;;;;;3.00;1.77;;;;;;;;;;5113129;28;20019;-75
2022/09/05 05:50:48;;;;;;;3.63;1.90;;;;;;;;;;5105367;28;20653;-76
2022/09/05 05:53:15;;;;;;;1.23;0.87;;;;;;;;;;5104507;28;20023;-76
2022/09/05 05:55:58;;;;;;;4.20;1.20;;;;;;;;;;5106744;28;20164;-76
2022/09/05 05:58:34;;;;;;;0.47;0.40;;;;;;;;;;5106126;28;20032;-75
2022/09/05 06:01:13;;;;;;;0.70;0.63;;;;;;;;;;5112470;28;20377;-75
2022/09/05 06:03:46;;;;;;;0.77;0.70;;;;;;;;;;5113353;28;20051;-76
2022/09/05 06:06:27;;;;;;;0.93;0.83;;;;;;;;;;5113551;28;20549;-75
2022/09/05 06:09:03;;;;;;;1.07;0.60;;;;;;;;;;5113071;28;20023;-75
2022/09/05 06:11:46;;;;;;;1.30;0.80;;;;;;;;;;5111084;28;20023;-76
2022/09/05 06:14:19;;;;;;;1.70;1.20;;;;;;;;;;5107781;28;20423;-75
2022/09/05 06:17:04;;;;;;;3.13;1.30;;;;;;;;;;5107860;28;20056;-75
2022/09/05 06:19:49;;;;;;;11.05;1.38;;;;;;;;;;5107664;28;20020;-75
2022/09/05 06:22:31;;;;;;;4.30;1.33;;;;;;;;;;5110443;28;20020;-75
2022/09/05 06:25:16;;;;;;;3.70;1.27;;;;;;;;;;5113220;28;20374;-75
2022/09/05 06:28:04;;;;;;;6.60;2.28;;;;;;;;;;5112865;28;20030;-75
2022/09/05 06:30:51;;;;;;;4.03;1.90;;;;;;;;;;5112880;28;20023;-75
2022/09/05 06:33:43;;;;;;;2.83;1.40;;;;;;;;;;5098264;28;20047;-75
2022/09/05 06:36:19;;;;;;;1.67;1.23;;;;;;;;;;5107513;28;20055;-75
2022/09/05 06:39:04;;;;;;;2.90;1.37;;;;;;;;;;5107446;28;20028;-75
2022/09/05 06:41:37;;;;;;;3.88;1.42;;;;;;;;;;5107644;28;20032;-75
2022/09/05 06:44:04;;;;;;;0.60;0.50;;;;;;;;;;5109334;28;20027;-75
2022/09/05 06:46:35;;;;;;;0.50;0.47;;;;;;;;;;5112837;28;20438;-75
2022/09/05 06:49:14;;;;;;;0.97;0.60;;;;;;;;;;5112868;28;20032;-75
2022/09/05 06:51:47;;;;;;;0.33;0.23;;;;;;;;;;5092656;28;20020;-75
2022/09/05 06:54:28;;;;;;;0.83;0.67;;;;;;;;;;5092632;28;20031;-75
2022/09/05 06:57:08;;;;;;;0.03;0.03;;;;;;;;;;5089323;28;20495;-75
2022/09/05 06:59:38;;;;;;;0.27;0.20;;;;;;;;;;5107447;28;20024;-75
2022/09/05 07:02:22;;;;;;;0.20;0.10;;;;;;;;;;5107216;28;20028;-75
2022/09/05 07:05:07;;;;;;;1.17;0.50;;;;;;;;;;5107161;28;20023;-75
2022/09/05 07:07:42;;;;;;;0.38;0.35;;;;;;;;;;5111313;28;20020;-75
2022/09/05 07:10:12;;;;;;;0.20;0.10;;;;;;;;;;5112885;28;20043;-74
2022/09/05 07:12:50;;;;;;;1.90;0.80;;;;;;;;;;5112667;28;20050;-75
2022/09/05 07:15:32;;;;;;;2.67;0.50;;;;;;;;;;5112393;28;20024;-75
2022/09/05 07:18:25;;;;;;;3.50;1.07;;;;;;;;;;5111946;28;20016;-75
2022/09/05 07:21:02;;;;;;;1.53;0.50;;;;;;;;;;5103059;28;20510;-75
2022/09/05 07:23:42;;;;;;;0.57;0.40;;;;;;;;;;5107330;28;20541;-75
2022/09/05 07:26:10;;;;;;;2.27;0.80;;;;;;;;;;5111288;28;20115;-74
2022/09/05 07:28:41;;;;;;;3.10;0.50;;;;;;;;;;5112886;28;20035;-75
2022/09/05 07:31:10;;;;;;;1.43;0.90;;;;;;;;;;5116207;28;20530;-75
2022/09/05 07:33:38;;;;;;;0.93;0.40;;;;;;;;;;5116304;28;20039;-75
2022/09/05 07:36:24;;;;;;;0.30;0.20;;;;;;;;;;5116197;28;20504;-75
2022/09/05 07:38:57;;;;;;;1.17;0.47;;;;;;;;;;5116192;28;20378;-75
2022/09/05 07:41:26;;;;;;;1.50;0.70;;;;;;;;;;5113151;28;20026;-75
2022/09/05 07:43:55;;;;;;;0.33;0.20;;;;;;;;;;5110638;28;20058;-75
2022/09/05 07:46:27;;;;;;;0.57;0.47;;;;;;;;;;5110557;28;20610;-75
2022/09/05 07:48:59;;;;;;;0.50;0.30;;;;;;;;;;5110801;28;20031;-75
2022/09/05 07:51:30;;;;;;;0.43;0.30;;;;;;;;;;5113734;28;20020;-75
2022/09/05 07:54:18;;;;;;;0.17;0.13;;;;;;;;;;5116037;28;20099;-74
2022/09/05 07:56:49;;;;;;;0.57;0.33;;;;;;;;;;5084984;28;20402;-74
2022/09/05 07:59:17;;;;;;;3.30;0.67;;;;;;;;;;5095538;28;20073;-74
2022/09/05 08:01:45;;;;;;;0.67;0.50;;;;;;;;;;5095395;28;20374;-74
2022/09/05 08:04:23;;;;;;;1.13;0.67;;;;;;;;;;5091323;28;20542;-74
2022/09/05 08:06:53;;;;;;;1.03;0.63;;;;;;;;;;5090877;28;20105;-74
2022/09/05 08:09:24;;;;;;;0.67;0.50;;;;;;;;;;5110356;28;20031;-74
2022/09/05 08:11:52;;;;;;;2.40;0.70;;;;;;;;;;5109779;28;20098;-75
2022/09/05 08:14:39;;;;;;;2.70;0.70;;;;;;;;;;5114693;28;20039;-74
2022/09/05 08:17:07;;;;;;;2.43;0.97;;;;;;;;;;5115102;28;20089;-74
2022/09/05 08:20:06;;;;;;;0.37;0.37;;;;;;;;;;5115008;28;20059;-74
2022/09/05 08:22:59;;;;;;;0.47;0.37;;;;;;;;;;5071229;28;20385;-74
2022/09/05 08:25:46;;;;;;;0.67;0.60;;;;;;;;;;5109867;28;20058;-74
2022/09/05 08:28:13;;;;;;;0.20;0.20;;;;;;;;;;5095778;28;20114;-74
2022/09/05 08:30:43;;;;;;;10.17;0.43;;;;;;;;;;5109699;28;20050;-74
2022/09/05 08:33:23;;;;;;;1.10;0.40;;;;;;;;;;5109491;28;20084;-74
2022/09/05 08:35:53;;;;;;;0.40;0.33;;;;;;;;;;5111774;28;20115;-74
2022/09/05 08:38:20;;;;;;;0.17;0.17;;;;;;;;;;5115312;28;20367;-75
2022/09/05 08:40:49;;;;;;;0.23;0.20;;;;;;;;;;5114711;28;20030;-74
2022/09/05 08:43:22;;;;;;;0.50;0.33;;;;;;;;;;5114652;28;20077;-74
2022/09/05 08:45:58;;;;;;;0.30;0.30;;;;;;;;;;5115103;28;20449;-74
2022/09/05 08:48:50;;;;;;;0.83;0.20;;;;;;;;;;5111456;28;20022;-74
2022/09/05 08:51:23;;;;;;;3.70;0.73;;;;;;;;;;5109064;28;20084;-74
2022/09/05 08:53:59;;;;;;;21.50;0.83;;;;;;;;;;5109585;28;20051;-74
2022/09/05 08:56:31;;;;;;;0.97;0.60;;;;;;;;;;5109294;28;20034;-74
2022/09/05 08:59:16;;;;;;;0.63;0.30;;;;;;;;;;5114020;28;20070;-74
2022/09/05 09:01:55;;;;;;;1.85;0.45;;;;;;;;;;5114475;28;20406;-74
2022/09/05 09:04:24;;;;;;;0.20;0.20;;;;;;;;;;5094227;28;20020;-74
2022/09/05 09:07:00;;;;;;;3.40;0.70;;;;;;;;;;5094324;28;20024;-75
2022/09/05 09:09:30;;;;;;;0.10;0.10;;;;;;;;;;5105741;28;20066;-74
2022/09/05 09:12:01;;;;;;;0.20;0.20;;;;;;;;;;5109102;28;20027;-75
2022/09/05 09:14:34;;;;;;;0.37;0.20;;;;;;;;;;5109229;28;20024;-75
2022/09/05 09:17:16;;;;;;;1.50;0.50;;;;;;;;;;5108990;28;20375;-75
2022/09/05 09:19:48;;;;;;;0.87;0.60;;;;;;;;;;5109283;28;20050;-74
2022/09/05 09:22:27;;;;;;;0.23;0.20;;;;;;;;;;5114358;28;20098;-74
2022/09/05 09:24:59;;;;;;;2.77;0.90;;;;;;;;;;5114418;28;20024;-73
2022/09/05 09:27:28;;;;;;;0.43;0.37;;;;;;;;;;5114463;28;20024;-75
2022/09/05 09:29:58;;;;;;;0.77;0.27;;;;;;;;;;5114281;28;20533;-75
2022/09/05 09:32:25;;;;;;;0.50;0.43;;;;;;;;;;5111393;28;20130;-75
2022/09/05 09:34:55;;;;;;;0.87;0.63;;;;;;;;;;5108553;28;20422;-74
2022/09/05 09:37:27;;;;;;;0.83;0.53;;;;;;;;;;5108490;28;20035;-74
2022/09/05 09:40:21;;;;;;;0.53;0.37;;;;;;;;;;5108801;28;20373;-74
2022/09/05 09:43:01;;;;;;;2.00;0.67;;;;;;;;;;5110918;28;20506;-74
2022/09/05 09:45:40;;;;;;;1.33;0.63;;;;;;;;;;5113932;28;20474;-74
2022/09/05 09:48:15;;;;;;;0.70;0.43;;;;;;;;;;5113740;28;20028;-74
2022/09/05 09:50:41;;;;;;;;;;;;;;;;;;5114229;28;20131;-74
2022/09/05 09:53:26;;;;;;;0.50;0.30;;;;;;;;;;5113949;28;20372;-74
2022/09/05 09:56:08;;;;;;;0.77;0.50;;;;;;;;;;5108119;28;20032;-74
2022/09/05 09:58:54;;;;;;;0.20;0.20;;;;;;;;;;5108315;28;20135;-74
2022/09/05 10:01:23;;;;;;;2.97;0.60;;;;;;;;;;5108223;28;20102;-75
2022/09/05 10:04:09;;;;;;;5.00;0.73;;;;;;;;;;5108336;28;20054;-75
2022/09/05 10:06:54;;;;;;;1.48;1.02;;;;;;;;;;5113283;28;20039;-75
2022/09/05 10:09:36;;;;;;;2.45;1.02;;;;;;;;;;5113414;28;20038;-75
2022/09/05 10:12:18;;;;;;;1.17;0.50;;;;;;;;;;5113328;28;20019;-75
2022/09/05 10:15:00;;;;;;;4.13;0.83;;;;;;;;;;5113396;28;20095;-75
2022/09/05 10:17:45;;;;;;;4.23;1.20;;;;;;;;;;5109678;28;20045;-74
2022/09/05 10:20:13;;;;;;;1.35;0.80;;;;;;;;;;5107503;28;20103;-74
2022/09/05 10:22:43;;;;;;;1.30;0.50;;;;;;;;;;5107816;28;20465;-74
2022/09/05 10:25:15;;;;;;;4.60;1.00;;;;;;;;;;5107868;28;20012;-74
2022/09/05 10:27:56;;;;;;;2.00;0.30;;;;;;;;;;5111602;28;20016;-74
2022/09/05 10:30:27;;;;;;;1.43;0.60;;;;;;;;;;5112243;28;20102;-75
2022/09/05 10:33:12;;;;;;;0.50;0.40;;;;;;;;;;5113100;28;20024;-75
2022/09/05 10:35:43;;;;;;;0.05;0.05;;;;;;;;;;5112866;28;20035;-74
2022/09/05 10:38:11;;;;;;;0.50;0.40;;;;;;;;;;5112982;28;20024;-74
2022/09/05 10:40:43;;;;;;;0.10;0.10;;;;;;;;;;5107144;28;20024;-74
2022/09/05 10:43:16;;;;;;;2.83;0.73;;;;;;;;;;5107159;28;20039;-74
2022/09/05 10:45:49;;;;;;;0.27;0.23;;;;;;;;;;5107375;28;20106;-74
2022/09/05 10:48:35;;;;;;;1.23;0.30;;;;;;;;;;5107510;28;20103;-74
2022/09/05 10:51:21;;;;;;;0.60;0.30;;;;;;;;;;5112849;28;20486;-74
2022/09/05 10:53:57;;;;;;;0.60;0.40;;;;;;;;;;5092511;28;20026;-74
2022/09/05 10:56:39;;;;;;;2.77;0.63;;;;;;;;;;5094478;28;20064;-74
2022/09/05 10:59:15;;;;;;;0.87;0.57;;;;;;;;;;5112089;28;20026;-74
2022/09/05 11:01:42;;;;;;;0.53;0.50;;;;;;;;;;5109607;28;20032;-74
2022/09/05 11:04:12;;;;;;;0.63;0.50;;;;;;;;;;5107214;28;20103;-74
2022/09/05 11:06:41;;;;;;;1.50;0.47;;;;;;;;;;5106966;28;20071;-74
2022/09/05 11:09:10;;;;;;;15.37;0.97;;;;;;;;;;5106924;28;20393;-74
2022/09/05 11:11:43;;;;;;;0.63;0.40;;;;;;;;;;5109892;28;20023;-74
2022/09/05 11:14:19;;;;;;;0.20;0.20;;;;;;;;;;5112743;28;20024;-74
2022/09/05 11:16:50;;;;;;;0.40;0.27;;;;;;;;;;5112185;28;20034;-74
2022/09/05 11:19:29;;;;;;;0.33;0.17;;;;;;;;;;5112586;28;20024;-74
2022/09/05 11:22:03;;;;;;;0.60;0.40;;;;;;;;;;5112415;28;20027;-74
2022/09/05 11:24:33;;;;;;;0.73;0.57;;;;;;;;;;5108082;28;20043;-74
2022/09/05 11:27:06;;;;;;;0.73;0.53;;;;;;;;;;5106711;28;20020;-74
2022/09/05 11:29:33;;;;;;;0.33;0.33;;;;;;;;;;5106785;28;20055;-73
2022/09/05 11:32:12;;;;;;;1.07;0.53;;;;;;;;;;5106921;28;20474;-74
2022/09/05 11:34:38;;;;;;;0.20;0.20;;;;;;;;;;5111569;28;20366;-74
2022/09/05 11:37:12;;;;;;;0.93;0.57;;;;;;;;;;5112182;28;20042;-73
2022/09/05 11:39:57;;;;;;;0.60;0.50;;;;;;;;;;5112405;28;20027;-74
2022/09/05 11:42:31;;;;;;;0.35;0.35;;;;;;;;;;5112337;28;20036;-74
2022/09/05 11:45:03;;;;;;;0.37;0.20;;;;;;;;;;5112172;28;20062;-74
2022/09/05 11:47:42;;;;;;;2.47;0.60;;;;;;;;;;5106533;28;20047;-74
2022/09/05 11:50:27;;;;;;;0.20;0.20;;;;;;;;;;5106650;28;20094;-74
2022/09/05 11:52:54;;;;;;;0.10;0.10;;;;;;;;;;5106896;28;20038;-74
2022/09/05 11:55:33;;;;;;;2.73;0.23;;;;;;;;;;5107495;28;20031;-74
2022/09/05 11:58:06;;;;;;;0.97;0.50;;;;;;;;;;5111977;28;20063;-74
2022/09/05 12:00:46;;;;;;;0.97;0.70;;;;;;;;;;5112187;28;20023;-74
2022/09/05 12:03:30;;;;;;;0.57;0.40;;;;;;;;;;5112225;28;20095;-74
2022/09/05 12:06:15;;;;;;;0.57;0.37;;;;;;;;;;5112251;28;20102;-75
2022/09/05 12:08:54;;;;;;;0.47;0.38;;;;;;;;;;5108552;28;20370;-74
2022/09/05 12:11:21;;;;;;;0.33;0.33;;;;;;;;;;5108399;28;20047;-74
2022/09/05 12:14:07;;;;;;;0.40;0.30;;;;;;;;;;5110422;28;20424;-74
2022/09/05 12:16:54;;;;;;;0.83;0.53;;;;;;;;;;5068525;28;20443;-74
2022/09/05 12:19:25;;;;;;;0.30;0.20;;;;;;;;;;5114743;28;20036;-74
2022/09/05 12:22:04;;;;;;;1.80;0.77;;;;;;;;;;5115645;28;20027;-74
2022/09/05 12:24:42;;;;;;;0.70;0.50;;;;;;;;;;5115505;28;20024;-74
2022/09/05 12:27:12;;;;;;;0.87;0.50;;;;;;;;;;5115438;28;20026;-74
2022/09/05 12:29:40;;;;;;;0.60;0.30;;;;;;;;;;5114416;28;20027;-74
2022/09/05 12:32:12;;;;;;;2.30;1.23;;;;;;;;;;5109831;28;20027;-74
2022/09/05 12:34:50;;;;;;;0.77;0.63;;;;;;;;;;5109400;28;20505;-74
2022/09/05 12:37:39;;;;;;;0.30;0.30;;;;;;;;;;5109909;28;20413;-74
2022/09/05 12:40:11;;;;;;;0.47;0.40;;;;;;;;;;5080350;28;20098;-74
2022/09/05 12:42:54;;;;;;;6.57;1.50;;;;;;;;;;5094699;28;20028;-74
2022/09/05 12:45:49;;;;;;;1.50;0.73;;;;;;;;;;5094529;28;20044;-74
2022/09/05 12:48:16;;;;;;;0.95;0.70;;;;;;;;;;5083756;28;20036;-74
2022/09/05 12:50:58;;;;;;;1.60;0.73;;;;;;;;;;5115123;28;20497;-74
2022/09/05 12:53:34;;;;;;;1.80;1.03;;;;;;;;;;5111013;28;20020;-74
2022/09/05 12:56:18;;;;;;;0.57;0.37;;;;;;;;;;5109423;28;20030;-74
2022/09/05 12:58:48;;;;;;;0.57;0.40;;;;;;;;;;5109107;28;20375;-74
2022/09/05 13:01:17;;;;;;;0.50;0.40;;;;;;;;;;5109316;28;20098;-74
2022/09/05 13:03:47;;;;;;;2.10;0.43;;;;;;;;;;5113683;28;20073;-74
2022/09/05 13:06:20;;;;;;;1.87;1.10;;;;;;;;;;5114797;28;20024;-74
2022/09/05 13:08:49;;;;;;;0.77;0.70;;;;;;;;;;5114057;28;20070;-74
2022/09/05 13:11:20;;;;;;;1.57;0.77;;;;;;;;;;5114660;28;20024;-74
2022/09/05 13:13:52;;;;;;;0.87;0.50;;;;;;;;;;5114846;28;20020;-74
2022/09/05 13:16:21;;;;;;;2.37;1.50;;;;;;;;;;5108978;28;20053;-74
2022/09/05 13:18:50;;;;;;;1.80;1.37;;;;;;;;;;5108720;28;20023;-74
2022/09/05 13:21:19;;;;;;;1.13;0.93;;;;;;;;;;5108087;28;20054;-74
2022/09/05 13:23:52;;;;;;;6.47;1.97;;;;;;;;;;5108963;28;20092;-74
2022/09/05 13:26:25;;;;;;;6.17;2.47;;;;;;;;;;5113928;28;20024;-74
2022/09/05 13:28:59;;;;;;;1.87;1.60;;;;;;;;;;5114025;28;20107;-74
2022/09/05 13:31:41;;;;;;;5.43;1.60;;;;;;;;;;5113531;28;20474;-74
2022/09/05 13:34:13;;;;;;;2.37;1.47;;;;;;;;;;5112234;28;20020;-73
2022/09/05 13:36:45;;;;;;;0.60;0.50;;;;;;;;;;5112237;28;20044;-74
2022/09/05 13:39:12;;;;;;;0.87;0.60;;;;;;;;;;5108113;28;20024;-74
2022/09/05 13:41:44;;;;;;;1.17;0.83;;;;;;;;;;5105422;28;20083;-74
2022/09/05 13:44:17;;;;;;;1.83;1.03;;;;;;;;;;5107268;28;20024;-74
2022/09/05 13:46:54;;;;;;;0.97;0.77;;;;;;;;;;5109489;28;20024;-74
2022/09/05 13:49:24;;;;;;;1.07;0.83;;;;;;;;;;5113752;28;20095;-74
2022/09/05 13:52:09;;;;;;;1.70;1.17;;;;;;;;;;5113589;28;20362;-74
2022/09/05 13:54:45;;;;;;;0.80;0.70;;;;;;;;;;5113586;28;20107;-74
2022/09/05 13:57:26;;;;;;;1.17;1.03;;;;;;;;;;5112989;27;20114;-74
2022/09/05 14:00:17;;;;;;;2.00;1.33;;;;;;;;;;5110595;28;20020;-74
2022/09/05 14:02:49;;;;;;;2.10;0.90;;;;;;;;;;5107962;28;20035;-73
2022/09/05 14:05:22;;;;;;;2.97;0.90;;;;;;;;;;5108359;28;20015;-74
2022/09/05 14:08:18;;;;;;;1.07;0.60;;;;;;;;;;5108230;28;20020;-74
2022/09/05 14:10:47;;;;;;;3.93;0.80;;;;;;;;;;5037142;28;20538;-73
2022/09/05 14:13:26;;;;;;;3.07;1.20;;;;;;;;;;5093079;28;20071;-73
2022/09/05 14:15:53;;;;;;;1.73;1.23;;;;;;;;;;5107634;28;20382;-73
2022/09/05 14:21:29;;;;;;;2.43;1.43;;;;;;;;;;5110861;28;20115;-75
2022/09/05 14:24:04;;;;;;;2.73;0.90;;;;;;;;;;5107467;28;20486;-73
2022/09/05 14:26:31;;;;;;;1.17;0.75;;;;;;;;;;5107544;28;20075;-74
2022/09/05 14:29:01;;;;;;;3.10;1.47;;;;;;;;;;5107818;28;20121;-73
2022/09/05 14:31:33;;;;;;;1.10;0.80;;;;;;;;;;5108004;28;20039;-75
2022/09/05 14:34:18;;;;;;;1.03;0.50;;;;;;;;;;5110562;28;20030;-75
2022/09/05 14:36:55;;;;;;;5.25;1.60;;;;;;;;;;5112683;28;20039;-74
2022/09/05 14:39:39;;;;;;;1.00;0.70;;;;;;;;;;5112766;28;20073;-75
2022/09/05 14:42:17;;;;;;;1.67;0.90;;;;;;;;;;5112628;27;20020;-75
2022/09/05 14:45:04;;;;;;;2.17;1.53;;;;;;;;;;5108705;28;20023;-74
2022/09/05 14:47:53;;;;;;;2.07;1.30;;;;;;;;;;5107591;28;20012;-75
2022/09/05 14:50:39;;;;;;;4.97;1.63;;;;;;;;;;5107423;28;20028;-74
2022/09/05 14:53:15;;;;;;;1.38;0.80;;;;;;;;;;5087420;28;20032;-74
2022/09/05 14:56:00;;;;;;;2.07;1.30;;;;;;;;;;5111714;28;20023;-74
2022/09/05 14:58:26;;;;;;;;;;;;;;;;;;5112980;28;20028;-74
2022/09/05 15:00:58;;;;;;;1.17;0.77;;;;;;;;;;5112327;28;20002;-74
2022/09/05 15:03:54;;;;;;;1.47;0.70;;;;;;;;;;5111393;28;20030;-76
2022/09/05 15:06:22;;;;;;;2.17;1.33;;;;;;;;;;5090069;28;20043;-74
2022/09/05 15:08:57;;;;;;;1.00;0.80;;;;;;;;;;5106965;28;20038;-73
2022/09/05 15:11:25;;;;;;;2.90;1.50;;;;;;;;;;5106804;28;20031;-75
2022/09/05 15:13:58;;;;;;;3.47;1.40;;;;;;;;;;5107418;28;20028;-74
2022/09/05 15:16:25;;;;;;;4.10;1.60;;;;;;;;;;5108348;28;20040;-74
2022/09/05 15:18:54;;;;;;;0.87;0.73;;;;;;;;;;5111600;28;20026;-74
2022/09/05 15:21:33;;;;;;;1.10;0.70;;;;;;;;;;5112614;28;20027;-74
2022/09/05 15:24:19;;;;;;;2.00;1.10;;;;;;;;;;5112217;28;20157;-74
2022/09/05 15:26:54;;;;;;;1.37;0.90;;;;;;;;;;5111692;28;20046;-74
2022/09/05 15:29:25;;;;;;;6.03;1.67;;;;;;;;;;5107465;28;20028;-75
2022/09/05 15:31:53;;;;;;;1.97;0.97;;;;;;;;;;5107002;28;20024;-74
2022/09/05 15:34:22;;;;;;;0.90;0.60;;;;;;;;;;5106162;28;20027;-74
2022/09/05 15:36:49;;;;;;;3.90;1.40;;;;;;;;;;5106299;28;20034;-74